createdAt,value
2022-11-02T00:04:48.832Z,52.38
2022-11-02T00:09:50.615Z,52.26
2022-11-02T00:14:52.811Z,52.35
2022-11-02T00:19:54.683Z,52.11
2022-11-02T00:24:56.673Z,52.28
2022-11-02T00:30:00.233Z,51.90
2022-11-02T00:35:02.112Z,52.01
2022-11-02T00:40:04.715Z,52.15
2022-11-02T00:45:07.679Z,52.33
2022-11-02T00:50:10.029Z,52.28
2022-11-02T00:55:15.257Z,51.98
2022-11-02T01:00:19.509Z,51.96
2022-11-02T01:05:22.240Z,51.56
2022-11-02T01:10:26.183Z,51.51
2022-11-02T01:15:28.209Z,51.39
2022-11-02T01:20:30.004Z,51.61
2022-11-02T01:25:31.854Z,51.38
2022-11-02T01:30:33.962Z,51.29
2022-11-02T01:35:38.589Z,51.04
2022-11-02T01:40:40.780Z,51.14
2022-11-02T01:45:42.605Z,50.97
2022-11-02T01:50:44.658Z,50.78
2022-11-02T01:55:46.776Z,50.30
2022-11-02T02:00:48.645Z,49.96
2022-11-02T02:05:58.016Z,50.03
2022-11-02T02:10:59.865Z,49.96
2022-11-02T02:16:29.893Z,50.11
2022-11-02T02:21:57.447Z,49.53
2022-11-02T02:27:05.405Z,49.39
2022-11-02T02:32:15.216Z,49.19
2022-11-02T02:37:31.550Z,49.25
2022-11-02T02:42:47.649Z,48.81
2022-11-02T02:48:03.779Z,48.50
2022-11-02T02:53:07.678Z,48.48
2022-11-02T02:58:18.583Z,48.41
2022-11-02T03:03:24.034Z,48.29
2022-11-02T03:08:25.909Z,48.34
2022-11-02T03:14:09.574Z,48.46
2022-11-02T03:19:35.869Z,48.53
2022-11-02T03:24:48.528Z,48.67
2022-11-02T03:29:57.580Z,48.59
2022-11-02T03:35:06.367Z,48.48
2022-11-02T03:40:08.497Z,48.38
2022-11-02T03:45:17.435Z,48.62
2022-11-02T03:50:23.243Z,48.54
2022-11-02T03:55:34.587Z,48.46
2022-11-02T04:00:38.455Z,48.71
2022-11-02T04:05:43.833Z,49.15
2022-11-02T04:11:18.547Z,49.03
2022-11-02T04:16:27.671Z,49.34
2022-11-02T04:21:31.596Z,49.23
2022-11-02T04:26:35.204Z,49.13
2022-11-02T04:31:37.561Z,49.31
2022-11-02T04:36:39.674Z,49.34
2022-11-02T04:41:42.897Z,49.51
2022-11-02T04:47:04.951Z,49.66
2022-11-02T04:52:09.937Z,49.89
2022-11-02T04:57:16.152Z,49.92
2022-11-02T05:02:19.092Z,50.02
2022-11-02T05:07:22.844Z,49.90
2022-11-02T05:12:29.164Z,49.85
2022-11-02T05:17:31.512Z,49.68
2022-11-02T05:22:33.484Z,49.99
2022-11-02T05:27:35.427Z,49.76
2022-11-02T05:32:38.091Z,50.26
2022-11-02T05:37:40.047Z,49.84
2022-11-02T05:42:42.620Z,50.29
2022-11-02T05:47:44.404Z,50.52
2022-11-02T05:52:46.516Z,50.40
2022-11-02T05:57:55.793Z,50.78
2022-11-02T06:02:58.764Z,50.63
2022-11-02T06:08:01.832Z,50.94
2022-11-02T06:13:04.893Z,51.66
2022-11-02T06:18:07.962Z,51.80
2022-11-02T06:23:09.823Z,51.89
2022-11-02T06:28:11.748Z,51.63
2022-11-02T06:33:14.130Z,51.56
2022-11-02T06:38:16.778Z,51.49
2022-11-02T06:43:18.943Z,51.37
2022-11-02T06:48:21.055Z,51.13
2022-11-02T06:53:22.961Z,50.73
2022-11-02T06:58:25.636Z,50.67
2022-11-02T07:03:28.127Z,50.49
2022-11-02T07:08:30.014Z,50.18
2022-11-02T07:13:31.911Z,50.11
2022-11-02T07:18:33.744Z,50.42
2022-11-02T07:23:35.634Z,49.79
2022-11-02T07:28:38.452Z,50.46
2022-11-02T07:33:40.357Z,49.79
2022-11-02T07:38:42.656Z,49.57
2022-11-02T07:43:44.460Z,48.91
2022-11-02T07:48:54.761Z,48.80
2022-11-02T07:53:56.574Z,48.13
2022-11-02T07:58:58.509Z,47.69
2022-11-02T08:04:00.309Z,47.52
2022-11-02T08:09:03.208Z,47.39
2022-11-02T08:14:05.087Z,46.92
2022-11-02T08:19:07.050Z,46.68
2022-11-02T08:24:09.048Z,46.55
2022-11-02T08:29:10.972Z,46.41
2022-11-02T08:34:12.919Z,45.99
2022-11-02T08:39:18.609Z,46.17
2022-11-02T08:44:21.354Z,45.96
2022-11-02T08:49:23.803Z,45.81
2022-11-02T08:54:25.654Z,45.93
2022-11-02T08:59:27.510Z,45.88
2022-11-02T09:04:29.326Z,45.09
2022-11-02T09:09:31.181Z,45.30
2022-11-02T09:14:32.978Z,44.92
2022-11-02T09:19:34.792Z,44.81
2022-11-02T09:24:36.634Z,44.62
2022-11-02T09:29:38.466Z,44.54
2022-11-02T09:34:40.318Z,44.20
2022-11-02T09:39:42.387Z,44.01
2022-11-02T09:44:55.204Z,44.14
2022-11-02T09:50:01.532Z,44.88
2022-11-02T09:55:10.591Z,45.12
2022-11-02T10:00:15.993Z,45.48
2022-11-02T10:05:41.494Z,45.70
2022-11-02T10:10:49.379Z,45.94
2022-11-02T10:15:56.081Z,46.01
2022-11-02T10:21:07.031Z,46.12
2022-11-02T10:26:19.662Z,46.40
2022-11-02T10:31:26.600Z,46.43
2022-11-02T10:36:53.068Z,46.37
2022-11-02T10:42:03.706Z,45.89
2022-11-02T10:47:15.869Z,45.44
2022-11-02T10:52:18.675Z,45.04
2022-11-02T10:57:24.568Z,44.88
2022-11-02T11:02:26.679Z,44.02
2022-11-02T11:07:29.570Z,43.46
2022-11-02T11:12:38.871Z,43.63
2022-11-02T11:23:12.422Z,43.40
2022-11-02T11:28:26.927Z,42.67
2022-11-02T11:33:30.479Z,42.86
2022-11-02T11:38:32.507Z,42.87
2022-11-02T11:43:38.589Z,41.74
2022-11-02T11:48:41.988Z,41.88
2022-11-02T11:54:19.007Z,42.24
2022-11-02T11:59:24.492Z,42.45
2022-11-02T12:04:31.626Z,42.71
2022-11-02T12:09:55.264Z,42.65
2022-11-02T12:15:16.933Z,42.70
2022-11-02T12:20:56.669Z,42.64
2022-11-02T12:26:27.972Z,42.44
2022-11-02T12:31:42.185Z,42.18
2022-11-02T12:37:40.866Z,41.60
2022-11-02T12:43:05.622Z,41.48
2022-11-02T12:48:09.746Z,40.93
2022-11-02T12:53:17.651Z,40.41
2022-11-02T12:58:27.795Z,38.05
2022-11-02T13:03:54.865Z,36.16
2022-11-02T13:09:12.912Z,35.30
2022-11-02T13:14:19.950Z,33.14
2022-11-02T13:19:30.142Z,31.85
2022-11-02T13:24:38.167Z,31.07
2022-11-02T13:29:48.745Z,29.62
2022-11-02T13:34:54.062Z,30.70
2022-11-02T13:40:02.835Z,32.26
2022-11-02T13:45:15.175Z,34.19
2022-11-02T13:50:22.289Z,35.61
2022-11-02T13:55:33.471Z,35.79
2022-11-02T14:00:44.402Z,36.65
2022-11-02T14:05:55.314Z,37.45
2022-11-02T14:11:45.380Z,37.87
2022-11-02T14:16:50.300Z,38.21
2022-11-02T14:21:55.038Z,38.82
2022-11-02T14:26:57.569Z,39.19
2022-11-02T14:32:06.021Z,39.66
2022-11-02T14:37:16.651Z,39.67
2022-11-02T14:42:33.468Z,39.71
2022-11-02T14:47:37.418Z,39.39
2022-11-02T14:52:42.605Z,39.66
2022-11-02T14:58:11.484Z,39.54
2022-11-02T15:03:25.924Z,39.38
2022-11-02T15:08:48.159Z,39.51
2022-11-02T15:13:49.991Z,40.03
2022-11-02T15:18:52.337Z,40.10
2022-11-02T15:24:15.586Z,40.13
2022-11-02T15:29:34.495Z,40.38
2022-11-02T15:34:42.291Z,40.66
2022-11-02T15:39:55.375Z,41.18
2022-11-02T15:45:42.147Z,41.15
2022-11-02T15:51:08.380Z,41.63
2022-11-02T15:56:17.519Z,41.78
2022-11-02T16:01:22.727Z,42.06
2022-11-02T16:06:28.426Z,41.97
2022-11-02T16:11:30.545Z,42.27
2022-11-02T16:16:35.884Z,42.45
2022-11-02T16:21:38.164Z,42.55
2022-11-02T16:26:43.008Z,42.35
2022-11-02T16:31:45.517Z,42.77
2022-11-02T16:36:48.047Z,42.84
2022-11-02T16:41:52.658Z,42.73
2022-11-02T16:47:00.993Z,42.97
2022-11-02T16:52:21.375Z,42.70
2022-11-02T16:57:27.193Z,42.73
2022-11-02T17:02:47.682Z,42.21
2022-11-02T17:07:59.009Z,42.62
2022-11-02T17:13:03.027Z,42.55
2022-11-02T17:18:08.133Z,43.12
2022-11-02T17:23:37.146Z,42.79
2022-11-02T17:28:45.076Z,42.73
2022-11-02T17:33:47.604Z,43.06
2022-11-02T17:38:49.705Z,42.46
2022-11-02T17:43:51.845Z,42.61
2022-11-02T17:48:53.726Z,42.71
2022-11-02T17:53:55.915Z,42.73
2022-11-02T17:58:58.734Z,43.11
2022-11-02T18:04:00.879Z,43.33
2022-11-02T18:09:12.413Z,43.04
2022-11-02T18:14:17.084Z,43.13
2022-11-02T18:19:19.986Z,43.16
2022-11-02T18:24:22.444Z,43.68
2022-11-02T18:29:24.952Z,44.71
2022-11-02T18:34:28.988Z,44.84
2022-11-02T18:39:32.521Z,45.02
2022-11-02T18:44:34.872Z,45.40
2022-11-02T18:49:37.544Z,45.05
2022-11-02T18:54:42.985Z,45.20
2022-11-02T18:59:46.268Z,45.54
2022-11-02T19:04:58.807Z,45.31
2022-11-02T19:10:04.347Z,45.46
2022-11-02T19:15:07.148Z,45.30
2022-11-02T19:20:10.103Z,45.28
2022-11-02T19:25:13.145Z,44.83
2022-11-02T19:30:15.088Z,44.74
2022-11-02T19:35:17.249Z,44.89
2022-11-02T19:40:19.894Z,44.83
2022-11-02T19:45:22.130Z,44.58
2022-11-02T19:50:24.306Z,44.82
2022-11-02T19:55:29.535Z,45.02
2022-11-02T20:00:31.519Z,44.90
2022-11-02T20:05:33.756Z,44.76
2022-11-02T20:10:35.788Z,44.96
2022-11-02T20:15:40.474Z,44.72
2022-11-02T20:20:42.901Z,44.38
2022-11-02T20:25:45.758Z,44.55
2022-11-02T20:30:48.270Z,44.57
2022-11-02T20:35:52.279Z,44.92
2022-11-02T20:40:55.123Z,45.01
2022-11-02T20:51:25.176Z,45.40
2022-11-02T20:56:27.072Z,45.54
2022-11-02T21:01:29.023Z,45.69
2022-11-02T21:06:30.924Z,46.19
2022-11-02T21:11:51.647Z,46.03
2022-11-02T21:16:53.397Z,46.04
2022-11-02T21:21:59.473Z,46.81
2022-11-02T21:27:02.213Z,47.16
2022-11-02T21:32:04.443Z,47.25
2022-11-02T21:37:08.032Z,47.35
2022-11-02T21:42:09.900Z,46.83
2022-11-02T21:47:12.568Z,46.68
2022-11-02T21:52:14.928Z,46.75
2022-11-02T21:57:16.861Z,46.87
2022-11-02T22:02:19.005Z,46.99
2022-11-02T22:07:21.467Z,46.83
2022-11-02T22:12:42.087Z,46.66
2022-11-02T22:17:49.593Z,46.69
2022-11-02T22:22:52.034Z,46.54
2022-11-02T22:27:53.822Z,46.50
2022-11-02T22:32:55.613Z,46.45
2022-11-02T22:38:15.977Z,46.48
2022-11-02T22:43:17.788Z,46.57
2022-11-02T22:48:19.595Z,46.56
2022-11-02T22:53:24.021Z,46.72
2022-11-02T22:58:27.833Z,47.10
2022-11-02T23:03:33.665Z,47.85
2022-11-02T23:08:37.829Z,47.90
2022-11-02T23:13:40.520Z,48.38
2022-11-02T23:19:00.869Z,48.16
2022-11-02T23:24:21.598Z,47.96
2022-11-02T23:29:41.926Z,47.14
2022-11-02T23:35:03.699Z,47.27
2022-11-02T23:40:06.407Z,47.54
2022-11-02T23:45:09.272Z,47.92
2022-11-02T23:50:11.429Z,47.85
2022-11-02T23:55:39.777Z,47.69
